Latest Weather Observations for Laverton

IDV60901

Issued at 9:21 am EDT Thursday 2 April 2015 (issued every 10 minutes, with the page automatically refreshed every 10 minutes)

About weather observations | Map of Melbourne area stations | Latest observations for Melbourne area | Other Formats
Station Details ID: 087031 Name: LAVERTON RAAF Lat: -37.86 Lon: 144.76 Height: 20.1 m
Data from the previous 72 hours. | See also: Recent months at Laverton
Date/Time
EDT
Tmp

°C
App
Tmp
°C
Dew
Point
°C
Rel
Hum
%
Delta-T

°C
Wind Press
QNH
hPa
Press
MSL
hPa
Rain
since
9 am
mm
Dir
 
Spd
km/h
Gust
km/h
Spd
kts
Gust
kts
02/09:00am 12.9 8.4 6.9 67 2.9 WSW 20 30 11 16 1022.7 1022.7 0.0
02/08:30am 12.0 8.0 6.5 69 2.6 WSW 17 22 9 12 1022.2 1022.2 0.0
02/08:00am 11.3 7.6 6.2 71 2.4 W 15 20 8 11 1021.6 1021.6 0.0
02/07:30am 11.7 8.4 6.4 70 2.5 W 13 19 7 10 1021.1 1021.1 0.0
02/07:00am 12.3 7.8 7.0 70 2.5 WSW 20 28 11 15 1020.5 1020.5 0.0
02/06:30am 12.6 7.9 7.7 72 2.4 WSW 22 33 12 18 1020.1 1020.1 0.0
02/05:30am 13.3 8.6 9.2 76 2.1 WSW 24 37 13 20 1018.8 1018.7 0.0
02/05:00am 14.0 9.8 9.8 76 2.2 WSW 22 32 12 17 1018.5 1018.4 0.0
02/04:30am 14.1 10.5 10.5 79 1.9 WSW 20 32 11 17 1018.0 1017.9 0.0
02/04:00am 14.2 10.7 11.0 81 1.7 W 20 28 11 15 1017.8 1017.7 0.0
02/03:30am 14.8 9.4 10.8 77 2.1 WSW 30 43 16 23 1017.5 1017.4 0.0
02/03:00am 15.5 10.3 11.7 78 2.1 WSW 30 48 16 26 1017.2 1017.1 0.0
02/02:57am 15.6 10.5 11.8 78 2.1 WSW 30 48 16 26 1017.0 1016.9 0.0
02/02:30am 16.2 10.5 11.8 75 2.4 WSW 33 50 18 27 1016.8 1016.7 0.0
02/02:00am 16.9 10.9 12.2 74 2.6 WSW 35 50 19 27 1016.2 1016.1 0.0
02/01:30am 19.0 14.3 14.3 74 2.7 WSW 32 54 17 29 1015.4 1015.3 0.0
02/01:07am 19.3 15.4 14.3 73 2.9 W 28 46 15 25 1015.0 1014.9 0.0
02/01:00am 19.2 15.2 14.2 73 2.9 WSW 28 41 15 22 1015.0 1014.9 0.0
02/12:36am 19.2 14.6 14.5 74 2.7 W 32 54 17 29 1014.8 1014.7 0.0
02/12:30am 19.2 14.6 14.5 74 2.7 WSW 32 46 17 25 1014.7 1014.6 0.0
02/12:01am 20.3 14.5 14.0 67 3.6 WSW 37 56 20 30 1014.0 1013.9 0.0
 
Date/Time
EDT
Tmp

°C
App
Tmp
°C
Dew
Point
°C
Rel
Hum
%
Delta-T

°C
Wind Press
QNH
hPa
Press
MSL
hPa
Rain
since
9 am
mm
Dir
 
Spd
km/h
Gust
km/h
Spd
kts
Gust
kts
01/11:42pm 21.5 17.4 13.7 61 4.5 W 28 46 15 25 1013.8 1013.7 0.0
01/11:30pm 21.6 17.6 13.0 58 4.9 W 26 37 14 20 1013.5 1013.4 0.0
01/11:00pm 21.7 17.0 12.0 54 5.4 WSW 28 46 15 25 1013.7 1013.6 0.0
01/10:30pm 22.3 17.3 11.1 49 6.2 SW 28 39 15 21 1013.2 1013.1 0.0
01/10:17pm 24.8 20.8 9.1 37 8.5 NW 20 43 11 23 1013.1 1013.0 0.0
01/10:00pm 25.8 21.9 6.9 30 9.9 NNW 17 22 9 12 1012.1 1012.0 0.0
01/09:30pm 26.2 22.2 6.8 29 10.2 N 17 24 9 13 1012.0 1011.9 0.0
01/09:00pm 26.5 22.6 7.0 29 10.3 N 17 22 9 12 1011.9 1011.8 0.0
01/08:30pm 26.9 23.0 6.9 28 10.6 NNW 17 24 9 13 1011.8 1011.7 0.0
01/08:00pm 27.0 22.7 6.9 28 10.6 NNW 19 26 10 14 1011.7 1011.6 0.0
01/07:30pm 27.6 23.7 6.9 27 11.0 NNW 17 24 9 13 1011.4 1011.4 0.0
01/07:00pm 28.0 23.6 7.3 27 11.1 N 20 26 11 14 1011.3 1011.3 0.0
01/06:30pm 28.3 24.1 7.5 27 11.2 N 19 32 10 17 1011.4 1011.4 0.0
01/05:30pm 29.1 23.0 8.2 27 11.4 NNW 30 37 16 20 1011.8 1011.7 0.0
01/05:00pm 29.1 23.0 8.2 27 11.4 NNW 30 44 16 24 1012.1 1012.0 0.0
01/04:30pm 29.0 22.5 8.1 27 11.4 NNW 32 46 17 25 1012.4 1012.3 0.0
01/04:00pm 28.9 24.7 9.6 30 10.8 NNW 22 33 12 18 1012.4 1012.3 0.0
01/03:33pm 28.7 23.0 9.9 31 10.5 NNW 30 48 16 26 1012.8 1012.7 0.0
01/03:30pm 28.6 22.5 9.8 31 10.5 NNW 32 48 17 26 1012.8 1012.7 0.0
01/03:03pm 28.5 23.2 9.7 31 10.5 NNW 28 46 15 25 1013.2 1013.1 0.0
01/03:00pm 28.7 23.0 9.9 31 10.5 NNW 30 46 16 25 1013.3 1013.2 0.0
01/02:35pm 28.9 22.2 9.6 30 10.8 NNW 35 54 19 29 1013.6 1013.5 0.0
01/02:30pm 28.8 21.7 9.5 30 10.8 NNW 37 54 20 29 1013.7 1013.6 0.0
01/02:09pm 28.8 21.6 9.0 29 11.0 NNW 37 56 20 30 1013.9 1013.8 0.0
01/02:00pm 29.2 21.5 8.8 28 11.3 NNW 39 54 21 29 1014.1 1014.0 0.0
01/01:30pm 29.8 24.0 9.3 28 11.5 NNW 30 39 16 21 1014.7 1014.6 0.0
01/01:00pm 30.2 25.6 9.7 28 11.5 N 24 39 13 21 1015.1 1015.0 0.0
01/12:30pm 28.2 23.6 10.9 34 9.8 NNE 26 41 14 22 1015.6 1015.5 0.0
01/12:00pm 26.4 21.7 10.5 37 8.9 NNE 26 35 14 19 1016.4 1016.3 0.0
01/11:30am 25.4 20.4 10.8 40 8.2 NNE 28 41 15 22 1016.9 1016.8 0.0
01/11:00am 24.3 20.8 10.9 43 7.5 NNE 20 33 11 18 1017.5 1017.4 0.0
01/10:30am 22.7 18.0 10.8 47 6.6 NNE 26 35 14 19 1017.9 1017.8 0.0
01/10:00am 22.1 17.5 10.9 49 6.2 NNE 26 41 14 22 1018.3 1018.2 0.0
01/09:44am 21.6 16.4 10.4 49 6.1 NNE 28 46 15 25 1018.4 1018.3 0.0
01/09:30am 21.4 15.5 10.3 49 6.0 NNE 32 43 17 23 1018.5 1018.4 0.0
01/09:00am 21.0 16.5 10.2 50 5.8 NNE 24 35 13 19 1018.7 1018.6 0.0
01/08:30am 20.0 16.1 9.3 50 5.7 NNE 20 30 11 16 1018.8 1018.7 0.0
01/08:00am 19.5 15.9 8.5 49 5.7 NNE 17 24 9 13 1018.7 1018.6 0.0
01/07:30am 19.6 15.3 8.0 47 6.0 NNE 20 30 11 16 1018.5 1018.4 0.0
01/07:00am 19.8 15.5 7.9 46 6.1 N 20 30 11 16 1018.6 1018.5 0.0
01/06:30am 19.0 15.3 9.5 54 5.0 NNE 19 30 10 16 1018.4 1018.3 0.0
01/06:27am 18.2 14.9 9.5 57 4.6 NNE 17 22 9 12 1018.4 1018.3 0.0
01/06:00am 13.2 11.1 8.3 72 2.4 N 9 13 5 7 1018.5 1018.4 0.0
01/05:30am 13.4 11.4 8.7 73 2.4 N 9 11 5 6 1018.6 1018.5 0.0
01/05:00am 12.3 10.6 8.4 77 1.9 N 7 11 4 6 1018.8 1018.7 0.0
01/04:30am 13.6 12.0 8.9 73 2.4 N 7 11 4 6 1019.0 1018.9 0.0
01/04:00am 12.9 11.1 9.4 79 1.8 N 9 11 5 6 1019.3 1019.2 0.0
01/03:30am 12.6 11.2 9.6 82 1.5 NNW 7 11 4 6 1019.6 1019.5 0.0
01/03:00am 12.2 10.8 9.6 84 1.3 NNW 7 9 4 5 1020.2 1020.1 0.0
01/02:30am 12.2 10.9 9.9 86 1.2 NNW 7 9 4 5 1020.5 1020.4 0.0
01/02:00am 12.0 10.7 10.1 88 1.0 NNW 7 9 4 5 1020.8 1020.7 0.0
01/01:30am 12.1 10.9 10.3 89 0.9 NNW 7 9 4 5 1021.0 1020.9 0.0
01/01:00am 12.2 10.6 10.3 88 1.0 NW 9 11 5 6 1021.3 1021.2 0.0
01/12:30am 13.3 12.5 11.2 87 1.1 WNW 6 7 3 4 1021.6 1021.5 0.0
01/12:00am 14.8 14.2 12.3 85 1.4 WSW 7 9 4 5 1022.0 1021.9 0.0
 
Date/Time
EDT
Tmp

°C
App
Tmp
°C
Dew
Point
°C
Rel
Hum
%
Delta-T

°C
Wind Press
QNH
hPa
Press
MSL
hPa
Rain
since
9 am
mm
Dir
 
Spd
km/h
Gust
km/h
Spd
kts
Gust
kts
31/11:30pm 14.3 13.2 12.0 86 1.2 NW 9 11 5 6 1022.1 1022.0 0.0
31/11:00pm 14.4 12.9 11.9 85 1.3 NW 11 15 6 8 1022.1 1022.0 0.0
31/10:30pm 16.3 17.4 13.6 84 1.5 CALM 0 0 0 0 1022.0 1021.9 0.0
31/10:00pm 16.8 17.9 13.5 81 1.9 CALM 0 0 0 0 1022.5 1022.4 0.0
31/09:30pm 17.8 18.7 14.1 79 2.1 SSE 2 6 1 3 1022.8 1022.7 0.0
31/09:00pm 18.3 18.4 14.4 78 2.2 SSE 7 11 4 6 1022.7 1022.6 0.0
31/08:30pm 19.0 18.2 14.1 73 2.8 SSE 11 15 6 8 1022.4 1022.3 0.0
31/08:00pm 19.2 18.6 14.5 74 2.7 SSE 11 15 6 8 1022.1 1022.0 0.0
31/07:30pm 19.8 19.1 14.2 70 3.2 SSE 11 17 6 9 1021.5 1021.4 0.0
31/07:00pm 20.5 19.8 14.2 67 3.6 SSE 11 19 6 10 1021.5 1021.4 0.0
31/06:30pm 21.1 18.9 13.3 61 4.5 SSE 17 24 9 13 1021.5 1021.4 0.0
31/06:00pm 21.9 19.5 12.7 56 5.2 SSE 17 24 9 13 1021.5 1021.4 0.0
31/05:30pm 22.4 20.0 12.6 54 5.6 SSE 17 22 9 12 1021.4 1021.3 0.0
31/05:00pm 22.5 19.7 12.7 54 5.6 SSE 19 24 10 13 1021.4 1021.3 0.0
31/04:30pm 23.2 20.3 12.2 50 6.2 SE 19 24 10 13 1021.6 1021.5 0.0
31/04:00pm 23.8 21.4 11.5 46 6.9 SE 15 20 8 11 1021.9 1021.8 0.0
31/03:30pm 23.5 20.9 11.9 48 6.6 SE 17 22 9 12 1022.3 1022.2 0.0
31/03:00pm 23.5 21.2 11.9 48 6.5 SE 15 20 8 11 1022.4 1022.3 0.0
31/02:30pm 22.9 20.6 11.9 50 6.2 SE 15 19 8 10 1023.0 1022.9 0.0
31/02:00pm 22.9 20.9 11.6 49 6.3 SE 13 17 7 9 1023.4 1023.3 0.0
31/01:30pm 22.4 20.6 12.1 52 5.8 SSE 13 17 7 9 1024.0 1023.9 0.0
31/01:00pm 21.2 20.1 12.1 56 5.1 ESE 9 15 5 8 1024.6 1024.5 0.0
31/12:30pm 21.1 19.7 12.3 57 5.0 SE 11 15 6 8 1025.0 1024.9 0.0
31/12:00pm 20.4 19.3 12.1 59 4.6 SE 9 15 5 8 1025.6 1025.5 0.0
31/11:30am 19.5 18.2 11.3 59 4.5 ESE 9 13 5 7 1026.3 1026.2 0.0
31/11:00am 18.4 17.6 11.7 65 3.7 E 7 13 4 7 1026.7 1026.6 0.0
31/10:30am 17.5 16.9 12.4 72 2.8 SW 7 11 4 6 1027.3 1027.2 0.0
31/10:00am 16.2 16.2 11.2 72 2.7 WNW 2 7 1 4 1027.2 1027.1 0.0
31/09:30am 14.0 13.8 10.6 80 1.8 WNW 2 6 1 3 1027.0 1026.9 0.0
31/09:00am 12.4 11.3 10.6 89 0.9 WNW 7 9 4 5 1026.9 1026.8 0.0
31/08:30am 10.4 8.9 9.3 93 0.5 NW 7 9 4 5 1026.5 1026.4 0.0
31/08:00am 9.0 7.2 7.9 93 0.5 NW 7 11 4 6 1026.4 1026.3 0.0
31/07:30am 8.8 6.6 7.7 93 0.5 NW 9 9 5 5 1026.0 1025.9 0.0
31/07:00am 8.6 6.3 7.5 93 0.5 WNW 9 11 5 6 1026.0 1025.9 0.0
31/06:30am 8.8 6.6 7.7 93 0.5 NW 9 11 5 6 1025.6 1025.5 0.0
31/06:00am 9.2 6.7 8.1 93 0.5 NW 11 13 6 7 1025.6 1025.5 0.0
31/05:30am 9.3 6.8 8.1 92 0.6 NW 11 13 6 7 1025.4 1025.3 0.0
31/05:00am 9.5 7.0 8.3 92 0.6 NW 11 13 6 7 1025.4 1025.3 0.0
31/04:30am 9.6 7.9 8.2 91 0.7 NW 7 9 4 5 1025.4 1025.3 0.0
31/04:00am 9.5 7.0 8.1 91 0.7 WNW 11 13 6 7 1025.4 1025.3 0.0
31/03:30am 9.6 7.5 8.2 91 0.7 WNW 9 11 5 6 1025.7 1025.6 0.0
31/03:00am 9.6 7.9 8.2 91 0.7 WNW 7 9 4 5 1025.9 1025.8 0.0
31/02:30am 10.1 8.5 8.7 91 0.7 WNW 7 9 4 5 1026.0 1025.9 0.0
31/02:00am 11.0 8.8 9.4 90 0.8 WNW 11 11 6 6 1026.1 1026.0 0.0
31/01:30am 11.3 9.5 9.6 89 0.9 NW 9 13 5 7 1026.3 1026.2 0.0
31/01:00am 11.4 9.2 9.3 87 1.0 W 11 11 6 6 1026.3 1026.2 0.0
31/12:30am 11.5 9.6 9.2 86 1.2 S 9 9 5 5 1026.3 1026.2 0.0
31/12:00am 12.1 10.7 9.5 84 1.3 SSE 7 9 4 5 1026.4 1026.3 0.0
 
Date/Time
EDT
Tmp

°C
App
Tmp
°C
Dew
Point
°C
Rel
Hum
%
Delta-T

°C
Wind Press
QNH
hPa
Press
MSL
hPa
Rain
since
9 am
mm
Dir
 
Spd
km/h
Gust
km/h
Spd
kts
Gust
kts
30/11:30pm 13.1 13.2 10.1 82 1.5 CALM 0 0 0 0 1026.5 1026.4 0.0
30/11:00pm 14.7 14.7 11.3 80 1.8 SSE 2 6 1 3 1026.7 1026.6 0.0
30/10:30pm 15.9 15.4 12.1 78 2.1 SSE 6 7 3 4 1026.6 1026.5 0.0
30/10:00pm 16.4 15.8 12.2 76 2.3 SE 7 9 4 5 1026.5 1026.4 0.0
30/09:30pm 16.9 15.9 12.2 74 2.6 SE 9 13 5 7 1026.4 1026.3 0.0
30/09:00pm 17.3 15.6 12.4 73 2.7 S 13 19 7 10 1026.2 1026.1 0.0
30/08:30pm 17.5 15.5 12.6 73 2.7 S 15 20 8 11 1025.9 1025.8 0.0
30/08:00pm 17.7 15.9 12.2 70 3.0 S 13 19 7 10 1025.4 1025.3 0.0
30/07:30pm 18.1 16.5 11.7 66 3.5 S 11 19 6 10 1025.0 1024.9 0.0
30/07:00pm 19.0 16.9 11.3 61 4.2 SSE 13 20 7 11 1024.7 1024.6 0.0
30/06:30pm 19.7 17.1 10.7 56 4.9 SSE 15 20 8 11 1024.4 1024.3 0.0
30/06:00pm 20.2 17.0 11.1 56 5.0 SSE 19 24 10 13 1024.1 1024.0 0.0
30/05:30pm 20.4 17.3 11.6 57 4.9 SSE 19 28 10 15 1023.8 1023.7 0.0
30/05:00pm 20.5 16.7 9.7 50 5.8 SE 20 28 11 15 1023.4 1023.3 0.0
30/04:30pm 20.8 17.5 10.9 53 5.4 SE 19 28 10 15 1023.2 1023.1 0.0
30/04:00pm 22.0 19.6 9.9 46 6.5 SE 13 22 7 12 1023.3 1023.2 0.0
30/03:30pm 22.0 18.9 10.2 47 6.4 ESE 17 22 9 12 1023.4 1023.3 0.0
30/03:00pm 22.7 19.2 10.2 45 6.8 ESE 19 24 10 13 1023.5 1023.4 0.0
30/02:30pm 22.0 18.8 9.9 46 6.6 SE 17 24 9 13 1023.6 1023.5 0.0
30/02:00pm 21.6 18.0 9.8 47 6.3 S 19 24 10 13 1023.9 1023.8 0.0
30/01:30pm 21.5 18.1 10.6 50 6.0 SE 19 24 10 13 1024.1 1024.0 0.0
30/01:00pm 21.3 18.2 10.2 49 6.0 SE 17 24 9 13 1024.3 1024.2 0.0
30/12:30pm 21.9 20.5 9.4 45 6.7 ESE 7 13 4 7 1024.5 1024.4 0.0
30/12:00pm 21.7 20.4 9.3 45 6.6 ESE 6 9 3 5 1024.7 1024.6 0.0
30/11:30am 20.4 19.5 9.3 49 5.9 NW 4 7 2 4 1025.0 1024.9 0.0
30/11:00am 19.5 18.5 8.8 50 5.6 NNE 4 7 2 4 1025.2 1025.1 0.0
30/10:30am 17.6 16.2 9.5 59 4.2 WSW 7 11 4 6 1025.3 1025.2 0.0
30/10:00am 16.7 15.9 9.6 63 3.7 W 4 7 2 4 1024.9 1024.8 0.0
30/09:30am 14.8 13.8 10.2 74 2.4 W 6 7 3 4 1024.8 1024.7 0.0

Latest Capital City Observations: Canberra | Sydney | Melbourne | Brisbane | Adelaide | Perth | Hobart | Darwin

Other Formats:

Comma delimited format used in spreadsheet applications
http://www.bom.gov.au/fwo/IDV60901/IDV60901.94865.axf

JavaScript Object Notation format (JSON) in row-major order
http://www.bom.gov.au/fwo/IDV60901/IDV60901.94865.json